Daily Reports
[Refresh to Update]

Barometric Pressure Shown is Corrected to Site Pressure


Today's History

6/19/19
Time         Wind Dir   Wind Spd  Wind Gust   Humidity       Temp   Tot Rain   Barom SL   24HrRain   RainRate  MonthRain
                            mph        mph          %         F         in         in         in      in/hr         in
12:00am           355        3.0        3.0       88.0       69.5      14.47      28.63       0.21      0.000       4.59
12:10am           355        1.0        2.0       89.0       69.2      14.47      28.63       0.21      0.000       4.59
12:20am           355        2.0        3.0       90.0       68.9      14.47      28.63       0.21      0.000       4.59
12:30am           355        1.0        1.0       90.0       68.7      14.47      28.63       0.21      0.000       4.59
12:40am           355        2.0        3.0       90.0       68.7      14.47      28.63       0.21      0.000       4.59
12:50am           321        3.0        3.0       89.0       68.7      14.47      28.62       0.21      0.000       4.59
1:00am            316        1.0        3.0       89.0       68.8      14.47      28.62       0.21      0.000       4.59
1:10am            315        5.0        5.0       89.0       68.7      14.47      28.62       0.21      0.000       4.59
1:20am            338        1.0        3.0       90.0       68.6      14.47      28.62       0.21      0.000       4.59
1:30am            329        2.0        2.0       90.0       68.5      14.47      28.62       0.21      0.000       4.59
1:40am            307        1.0        2.0       90.0       68.4      14.47      28.62       0.21      0.000       4.59
1:50am            345        0.0        1.0       90.0       68.3      14.47      28.61       0.21      0.000       4.59
2:00am            345        0.0        0.0       90.0       68.3      14.47      28.61       0.21      0.000       4.59
2:10am            345        1.0        2.0       91.0       68.3      14.47      28.61       0.21      0.000       4.59
2:20am            345        1.0        2.0       92.0       68.1      14.47      28.61       0.21      0.000       4.59
2:30am            345        0.0        0.0       92.0       67.8      14.47      28.60       0.21      0.000       4.59
2:40am            345        0.0        1.0       92.0       67.7      14.47      28.60       0.20      0.000       4.59
2:50am            345        1.0        2.0       93.0       67.5      14.47      28.60       0.20      0.000       4.59
3:00am            345        1.0        1.0       93.0       67.2      14.47      28.59       0.20      0.000       4.59
3:10am            345        3.0        3.0       93.0       66.9      14.47      28.59       0.20      0.000       4.59
3:20am            265        3.0        4.0       93.0       66.1      14.47      28.59       0.20      0.000       4.59
3:30am            265        3.0        3.0       95.0       66.2      14.47      28.59       0.20      0.000       4.59
3:40am            265        3.0        3.0       95.0       66.3      14.47      28.59       0.20      0.000       4.59
3:50am            265        2.0        2.0       95.0       66.1      14.47      28.59       0.20      0.000       4.59
4:00am            306        3.0        4.0       94.0       65.9      14.47      28.58       0.20      0.000       4.59
4:10am            331        2.0        3.0       95.0       65.9      14.47      28.58       0.20      0.000       4.59
4:20am            323        2.0        2.0       95.0       66.0      14.47      28.58       0.20      0.000       4.59
4:30am            292        3.0        3.0       94.0       65.4      14.47      28.58       0.20      0.000       4.59
4:40am            302        3.0        4.0       95.0       65.1      14.47      28.58       0.20      0.000       4.59
4:50am            298        3.0        4.0       95.0       64.9      14.47      28.58       0.20      0.000       4.59
5:00am            300        2.0        3.0       95.0       64.9      14.47      28.58       0.20      0.000       4.59
5:10am            300        1.0        2.0       95.0       65.0      14.47      28.58       0.20      0.000       4.59
5:20am            302        1.0        2.0       95.0       65.0      14.47      28.58       0.20      0.000       4.59
5:30am            344        2.0        2.0       95.0       65.3      14.47      28.57       0.20      0.000       4.59
5:40am            344        1.0        1.0       95.0       65.3      14.47      28.57       0.20      0.000       4.59
5:50am            344        1.0        2.0       94.0       65.3      14.47      28.57       0.20      0.000       4.59
6:00am            276        3.0        3.0       95.0       65.3      14.47      28.57       0.20      0.000       4.59
6:10am            276        2.0        3.0       95.0       65.3      14.47      28.58       0.20      0.000       4.59
6:20am            276        1.0        1.0       95.0       65.3      14.47      28.57       0.20      0.000       4.59
6:30am            276        1.0        1.0       94.0       65.4      14.47      28.57       0.19      0.000       4.59
6:40am            276        0.0        0.0       94.0       65.5      14.47      28.58       0.19      0.000       4.59
6:50am            276        1.0        1.0       94.0       65.5      14.47      28.57       0.19      0.000       4.59
7:00am            333        2.0        3.0       94.0       65.8      14.47      28.57       0.19      0.000       4.59
7:10am            333        0.0        0.0       94.0       66.1      14.47      28.58       0.19      0.000       4.59
7:20am            333        0.0        0.0       93.0       66.3      14.47      28.58       0.19      0.000       4.59
7:30am            333        0.0        0.0       93.0       66.5      14.47      28.58       0.19      0.000       4.59
7:40am            333        0.0        0.0       93.0       66.6      14.47      28.58       0.19      0.000       4.59
7:50am            333        0.0        0.0       92.0       66.8      14.47      28.58       0.19      0.000       4.59
8:00am            333        0.0        0.0       92.0       67.0      14.47      28.57       0.19      0.000       4.59
8:10am            248        0.0        1.0       92.0       67.3      14.47      28.57       0.19      0.000       4.59
8:30am            274        3.0        3.0       92.0       67.9      14.47      28.57       0.19      0.000       4.59
8:40am            310        2.0        2.0       91.0       68.6      14.47      28.57       0.15      0.000       4.59
8:50am            348        3.0        3.0       90.0       69.4      14.47      28.57       0.12      0.000       4.59
9:00am             23        1.0        3.0       88.0       70.1      14.47      28.57       0.11      0.000       4.59
9:10am             36        4.0        4.0       86.0       70.4      14.47      28.57       0.11      0.000       4.59
9:20am             36        1.0        3.0       86.0       70.6      14.47      28.56       0.11      0.000       4.59
9:30am             71        2.0        4.0       82.0       71.1      14.47      28.57       0.11      0.000       4.59
9:40am             22        3.0        3.0       82.0       71.5      14.47      28.56       0.11      0.000       4.59
9:50am             34        3.0        5.0       82.0       71.5      14.47      28.56       0.11      0.000       4.59
10:00am            18        2.0        5.0       82.0       72.7      14.47      28.56       0.11      0.000       4.59
10:10am            34        4.0        5.0       78.0       72.9      14.47      28.56       0.11      0.000       4.59
10:20am            39        3.0        5.0       72.0       73.7      14.47      28.56       0.11      0.000       4.59
10:30am            71        6.0        8.0       67.0       74.5      14.47      28.55       0.11      0.000       4.59
10:40am            34        3.0        5.0       68.0       75.1      14.47      28.55       0.11      0.000       4.59
10:50am            31        6.0       10.0       66.0       75.8      14.47      28.55       0.11      0.000       4.59
11:00am            36        4.0        5.0       66.0       75.2      14.47      28.55       0.11      0.000       4.59
11:10am            15        2.0        6.0       67.0       76.0      14.47      28.55       0.11      0.000       4.59
11:20am            57        3.0        4.0       66.0       76.4      14.47      28.54       0.11      0.000       4.59
11:30am            96        3.0        3.0       65.0       77.4      14.47      28.54       0.11      0.000       4.59
11:40am            61        3.0        4.0       63.0       77.0      14.47      28.54       0.11      0.000       4.59
11:50am            63        5.0        7.0       62.0       77.8      14.47      28.54       0.11      0.000       4.59
12:00pm            55        4.0        5.0       61.0       77.6      14.47      28.54       0.11      0.000       4.59
12:10pm            45        3.0        5.0       60.0       78.0      14.47      28.54       0.11      0.000       4.59
12:20pm           139        1.0        2.0       60.0       78.6      14.47      28.54       0.11      0.000       4.59
12:30pm            83        5.0        7.0       60.0       79.2      14.47      28.54       0.11      0.000       4.59
12:40pm           115        6.0        7.0       60.0       79.1      14.47      28.54       0.11      0.000       4.59
12:50pm           136        3.0        3.0       58.0       79.6      14.47      28.54       0.11      0.000       4.59
1:00pm            254        3.0        3.0       62.0       79.9      14.47      28.53       0.11      0.000       4.59
1:10pm             35        4.0        5.0       61.0       79.4      14.47      28.53       0.07      0.000       4.59
1:20pm             66        4.0        6.0       58.0       79.8      14.47      28.52       0.02      0.000       4.59
1:30pm             74        4.0        4.0       56.0       80.1      14.47      28.52       0.00      0.000       4.59
1:40pm             38        2.0        5.0       55.0       80.2      14.47      28.51       0.00      0.000       4.59
1:50pm            265        2.0        3.0       58.0       79.9      14.47      28.50       0.00      0.000       4.59
2:00pm             94        3.0        6.0       52.0       80.6      14.47      28.50       0.00      0.000       4.59
2:10pm            116        4.0        6.0       52.0       81.3      14.47      28.50       0.00      0.000       4.59
2:20pm             25        3.0        6.0       55.0       80.6      14.47      28.50       0.00      0.000       4.59
2:30pm            328        3.0        5.0       57.0       80.5      14.47      28.49       0.00      0.000       4.59
2:40pm            115        4.0        6.0       54.0       80.9      14.47      28.49       0.00      0.000       4.59
2:50pm             76        7.0        7.0       55.0       81.5      14.47      28.48       0.00      0.000       4.59
3:00pm             66        3.0        4.0       55.0       81.7      14.47      28.48       0.00      0.000       4.59
3:10pm            348        3.0        5.0       54.0       82.2      14.47      28.47       0.00      0.000       4.59
3:20pm             61        8.0        8.0       56.0       81.8      14.47      28.46       0.00      0.000       4.59
3:30pm             62        1.0        2.0       55.0       82.0      14.47      28.45       0.00      0.000       4.59
3:40pm             50        6.0        9.0       58.0       82.1      14.47      28.45       0.00      0.000       4.59
3:50pm             41        4.0        6.0       63.0       81.1      14.47      28.44       0.00      0.000       4.59
4:00pm            355        5.0        9.0       58.0       81.2      14.47      28.44       0.00      0.000       4.59

 


Yesterday's History

6/18/19
Time         Wind Dir   Wind Spd  Wind Gust   Humidity       Temp   Tot Rain   Barom SL   24HrRain   RainRate  MonthRain
                            mph        mph          %         F         in         in         in      in/hr         in
12:00am           349        3.0        4.0       96.0       68.1      14.26      28.72       0.59      0.000       4.38
12:10am           355        1.0        3.0       96.0       68.1      14.26      28.72       0.59      0.000       4.38
12:20am           355        0.0        1.0       96.0       68.0      14.26      28.72       0.59      0.000       4.38
12:30am           305        1.0        2.0       96.0       67.9      14.26      28.72       0.59      0.000       4.38
12:40am           323        2.0        2.0       96.0       67.9      14.26      28.72       0.59      0.000       4.38
12:50am           343        1.0        1.0       96.0       67.8      14.26      28.72       0.59      0.000       4.38
1:00am            343        1.0        2.0       96.0       67.8      14.26      28.72       0.58      0.000       4.38
1:10am            342        1.0        2.0       96.0       67.9      14.26      28.71       0.55      0.000       4.38
1:20am            285        2.0        2.0       96.0       67.8      14.26      28.71       0.52      0.000       4.38
1:30am            285        3.0        3.0       96.0       67.8      14.26      28.71       0.51      0.000       4.38
1:40am            256        4.0        4.0       96.0       67.8      14.26      28.71       0.51      0.000       4.38
1:50am            257        2.0        3.0       96.0       67.7      14.26      28.70       0.50      0.000       4.38
2:00am            257        2.0        2.0       96.0       67.7      14.26      28.70       0.49      0.000       4.38
2:10am            263        2.0        2.0       96.0       67.7      14.26      28.70       0.45      0.000       4.38
2:20am            263        1.0        2.0       96.0       67.7      14.26      28.70       0.42      0.000       4.38
2:30am            294        4.0        4.0       96.0       67.6      14.26      28.70       0.40      0.000       4.38
2:40am            288        4.0        4.0       96.0       67.6      14.27      28.70       0.40      0.000       4.39
2:50am            275        6.0        6.0       96.0       67.5      14.27      28.70       0.40      0.000       4.39
3:00am            277        4.0        7.0       96.0       67.4      14.27      28.70       0.39      0.000       4.39
3:10am            282        7.0        7.0       97.0       67.3      14.27      28.70       0.39      0.000       4.39
3:20am            298        3.0        4.0       97.0       67.2      14.27      28.70       0.39      0.000       4.39
3:30am            315        3.0        7.0       97.0       67.2      14.27      28.69       0.39      0.000       4.39
3:40am            306        4.0        7.0       96.0       66.7      14.27      28.69       0.39      0.000       4.39
3:50am            276        3.0        3.0       96.0       66.5      14.27      28.69       0.39      0.000       4.39
4:00am            276        1.0        2.0       96.0       66.4      14.27      28.69       0.39      0.000       4.39
4:10am            276        2.0        2.0       96.0       66.3      14.27      28.69       0.39      0.000       4.39
4:20am            276        2.0        2.0       96.0       66.2      14.27      28.68       0.39      0.000       4.39
4:30am            261        1.0        2.0       96.0       66.3      14.27      28.68       0.39      0.000       4.39
4:40am            261        1.0        2.0       96.0       66.2      14.27      28.69       0.39      0.000       4.39
4:50am            261        1.0        2.0       96.0       66.3      14.27      28.69       0.39      0.000       4.39
5:00am            261        0.0        0.0       96.0       66.4      14.27      28.69       0.39      0.000       4.39
5:10am            261        0.0        1.0       96.0       66.5      14.27      28.69       0.39      0.000       4.39
5:20am            261        1.0        1.0       96.0       66.5      14.27      28.69       0.38      0.000       4.39
5:30am            261        1.0        2.0       96.0       66.5      14.27      28.69       0.38      0.000       4.39
5:40am            261        1.0        1.0       96.0       66.5      14.27      28.70       0.38      0.000       4.39
5:50am            261        2.0        2.0       96.0       66.6      14.27      28.70       0.38      0.000       4.39
6:00am            280        1.0        2.0       96.0       66.7      14.27      28.70       0.38      0.000       4.39
6:10am            340        3.0        4.0       96.0       66.6      14.27      28.70       0.38      0.000       4.39
6:20am            342        2.0        2.0       96.0       66.5      14.27      28.70       0.38      0.000       4.39
6:30am            360        3.0        3.0       96.0       66.5      14.28      28.70       0.39      0.000       4.40
6:40am            330        2.0        4.0       96.0       66.5      14.28      28.70       0.39      0.000       4.40
6:50am            355        4.0        5.0       96.0       66.3      14.28      28.70       0.39      0.000       4.40
7:00am             37        3.0        3.0       96.0       66.3      14.28      28.70       0.39      0.000       4.40
7:10am             20        3.0        4.0       96.0       66.3      14.28      28.70       0.39      0.000       4.40
7:20am             11        3.0        4.0       96.0       66.4      14.28      28.70       0.39      0.000       4.40
7:30am             13        4.0        4.0       96.0       66.4      14.28      28.70       0.39      0.000       4.40
7:40am             13        1.0        2.0       96.0       66.4      14.28      28.70       0.39      0.000       4.40
7:50am            310        2.0        2.0       96.0       66.4      14.28      28.71       0.39      0.000       4.40
8:00am            321        4.0        4.0       96.0       66.4      14.28      28.70       0.39      0.000       4.40
8:10am            336        3.0        4.0       96.0       66.4      14.28      28.71       0.39      0.000       4.40
8:20am            336        1.0        2.0       96.0       66.5      14.28      28.71       0.39      0.000       4.40
8:30am            315        3.0        3.0       96.0       66.5      14.28      28.72       0.39      0.000       4.40
8:40am            311        2.0        4.0       96.0       66.5      14.33      28.72       0.44      0.680       4.45
8:50am            345        1.0        1.0       96.0       66.5      14.36      28.72       0.47      0.380       4.48
9:00am            313        3.0        3.0       96.0       66.5      14.36      28.72       0.47      0.050       4.48
9:10am            318        3.0        4.0       96.0       66.9      14.36      28.72       0.47      0.000       4.48
9:20am            321        3.0        4.0       96.0       67.0      14.36      28.72       0.47      0.000       4.48
9:30am            355        3.0        3.0       96.0       66.9      14.36      28.72       0.47      0.000       4.48
9:40am            100        4.0        4.0       96.0       67.2      14.36      28.72       0.47      0.000       4.48
9:50am            360        4.0        4.0       95.0       67.5      14.36      28.72       0.47      0.000       4.48
10:00am             5        4.0        4.0       95.0       67.6      14.36      28.72       0.47      0.000       4.48
10:10am            36        4.0        4.0       95.0       67.9      14.36      28.72       0.47      0.000       4.48
10:30am            26        3.0        4.0       94.0       68.3      14.36      28.71       0.47      0.000       4.48
10:40am            58        4.0        4.0       93.0       68.4      14.36      28.71       0.47      0.000       4.48
10:50am            46        4.0        4.0       93.0       68.9      14.36      28.71       0.47      0.000       4.48
11:00am            40        4.0        5.0       92.0       69.0      14.36      28.71       0.47      0.000       4.48
11:10am            17        3.0        5.0       92.0       69.4      14.36      28.70       0.47      0.000       4.48
11:20am           360        4.0        4.0       92.0       69.4      14.36      28.70       0.47      0.000       4.48
11:30am           360        3.0        5.0       91.0       69.9      14.36      28.70       0.47      0.000       4.48
11:40am           308        4.0        4.0       90.0       70.7      14.36      28.70       0.47      0.000       4.48
11:50am           355        3.0        6.0       89.0       71.2      14.36      28.70       0.47      0.000       4.48
12:00pm           320        3.0        4.0       88.0       70.9      14.36      28.70       0.47      0.000       4.48
12:10pm           350        4.0        5.0       88.0       71.4      14.36      28.70       0.47      0.000       4.48
12:20pm            27        1.0        2.0       87.0       71.3      14.36      28.70       0.47      0.000       4.48
12:30pm           304        5.0        5.0       87.0       71.4      14.36      28.70       0.47      0.000       4.48
12:40pm             5        2.0        3.0       85.0       71.2      14.36      28.70       0.47      0.000       4.48
12:50pm            53        4.0        5.0       87.0       71.0      14.36      28.69       0.47      0.000       4.48
1:00pm              5        3.0        3.0       88.0       70.8      14.36      28.69       0.47      0.000       4.48
1:10pm            132        5.0        7.0       91.0       70.5      14.41      28.69       0.52      0.340       4.53
1:20pm             79        5.0        5.0       91.0       70.0      14.46      28.69       0.57      0.370       4.58
1:30pm             71        3.0        4.0       92.0       70.0      14.47      28.68       0.58      0.110       4.59
1:40pm             15        4.0        4.0       90.0       70.5      14.47      28.68       0.58      0.040       4.59
1:50pm             51        1.0        4.0       90.0       71.1      14.47      28.68       0.58      0.000       4.59
2:00pm             17        0.0        2.0       90.0       71.4      14.47      28.68       0.58      0.000       4.59
2:10pm             61        2.0        3.0       87.0       72.2      14.47      28.67       0.58      0.000       4.59
2:20pm             32        1.0        2.0       87.0       72.2      14.47      28.67       0.58      0.000       4.59
2:30pm            107        2.0        2.0       86.0       72.5      14.47      28.67       0.58      0.000       4.59
2:40pm            132        2.0        3.0       87.0       72.7      14.47      28.67       0.58      0.000       4.59
2:50pm             94        3.0        4.0       87.0       73.1      14.47      28.67       0.58      0.000       4.59
3:00pm             79        4.0        5.0       87.0       73.1      14.47      28.66       0.58      0.000       4.59
3:10pm            138        7.0        7.0       83.0       73.2      14.47      28.66       0.58      0.000       4.59
3:20pm            111        4.0        6.0       87.0       73.3      14.47      28.66       0.58      0.000       4.59
3:40pm             73        3.0        3.0       81.0       74.6      14.47      28.66       0.58      0.000       4.59
3:50pm             40        1.0        3.0       78.0       74.8      14.47      28.65       0.58      0.000       4.59
4:00pm             43        1.0        2.0       80.0       74.4      14.47      28.65       0.58      0.000       4.59
4:10pm            348        2.0        2.0       80.0       74.4      14.47      28.65       0.58      0.000       4.59
4:20pm            115        2.0        3.0       79.0       74.5      14.47      28.64       0.58      0.000       4.59
4:30pm            334        2.0        2.0       78.0       75.1      14.47      28.64       0.58      0.000       4.59
4:40pm            328        2.0        3.0       80.0       75.2      14.47      28.64       0.58      0.000       4.59
4:50pm            309        4.0        5.0       80.0       75.4      14.47      28.64       0.58      0.000       4.59
5:00pm            329        5.0        5.0       80.0       75.2      14.47      28.64       0.58      0.000       4.59
5:10pm            302       11.0       11.0       81.0       74.7      14.47      28.64       0.58      0.000       4.59
5:20pm            271       10.0       13.0       85.0       73.3      14.47      28.63       0.58      0.000       4.59
5:30pm            292        8.0       11.0       84.0       73.4      14.47      28.63       0.58      0.000       4.59
5:40pm            336        5.0        8.0       80.0       73.9      14.47      28.63       0.58      0.000       4.59
5:50pm            342        5.0        7.0       79.0       75.2      14.47      28.62       0.58      0.000       4.59
6:00pm            302       10.0       10.0       76.0       75.2      14.47      28.62       0.58      0.000       4.59
6:10pm            332        5.0        6.0       77.0       74.5      14.47      28.62       0.58      0.000       4.59
6:20pm            342        5.0        8.0       78.0       74.1      14.47      28.62       0.58      0.000       4.59
6:30pm            343        3.0        8.0       79.0       74.4      14.47      28.62       0.58      0.000       4.59
6:40pm            355        4.0        6.0       76.0       75.1      14.47      28.62       0.58      0.000       4.59
6:50pm            333        3.0        6.0       75.0       75.5      14.47      28.61       0.58      0.000       4.59
7:00pm            346        8.0       11.0       74.0       75.5      14.47      28.61       0.58      0.000       4.59
7:10pm            331        6.0        7.0       75.0       75.3      14.47      28.61       0.58      0.000       4.59
7:20pm            355        4.0        8.0       75.0       75.2      14.47      28.61       0.58      0.000       4.59
7:30pm            329        6.0        6.0       76.0       75.1      14.47      28.62       0.58      0.000       4.59
7:40pm            346        6.0        8.0       76.0       74.9      14.47      28.62       0.58      0.000       4.59
7:50pm            360        4.0        6.0       77.0       74.5      14.47      28.62       0.55      0.000       4.59
8:00pm            350        4.0        4.0       77.0       74.1      14.47      28.62       0.49      0.000       4.59
8:10pm            341        1.0        3.0       79.0       73.8      14.47      28.62       0.46      0.000       4.59
8:20pm             44        5.0        5.0       80.0       73.7      14.47      28.62       0.43      0.000       4.59
8:30pm             38        3.0        4.0       80.0       73.6      14.47      28.61       0.40      0.000       4.59
8:40pm             38        2.0        3.0       80.0       73.3      14.47      28.61       0.37      0.000       4.59
8:50pm             38        0.0        0.0       80.0       73.3      14.47      28.62       0.33      0.000       4.59
9:00pm             24        1.0        2.0       81.0       73.0      14.47      28.62       0.29      0.000       4.59
9:10pm             17        2.0        3.0       81.0       72.7      14.47      28.62       0.26      0.000       4.59
9:20pm             17        2.0        3.0       81.0       72.6      14.47      28.62       0.24      0.000       4.59
9:30pm              5        2.0        2.0       82.0       72.4      14.47      28.62       0.23      0.000       4.59
9:40pm              5        4.0        4.0       82.0       72.1      14.47      28.62       0.23      0.000       4.59
9:50pm             32        2.0        3.0       82.0       71.8      14.47      28.62       0.22      0.000       4.59
10:00pm            32        1.0        1.0       83.0       71.9      14.47      28.63       0.22      0.000       4.59
10:10pm            32        2.0        3.0       84.0       71.7      14.47      28.63       0.21      0.000       4.59
10:20pm           360        2.0        3.0       84.0       71.2      14.47      28.62       0.21      0.000       4.59
10:30pm            13        3.0        4.0       85.0       70.7      14.47      28.63       0.21      0.000       4.59
10:40pm            15        4.0        4.0       86.0       70.8      14.47      28.62       0.21      0.000       4.59
10:50pm            13        2.0        3.0       87.0       70.4      14.47      28.63       0.21      0.000       4.59
11:00pm            34        4.0        5.0       87.0       70.1      14.47      28.63       0.21      0.000       4.59
11:10pm           360        3.0        4.0       86.0       70.0      14.47      28.63       0.21      0.000       4.59
11:20pm             9        1.0        1.0       87.0       69.8      14.47      28.63       0.21      0.000       4.59
11:30pm           355        2.0        3.0       87.0       69.5      14.47      28.63       0.21      0.000       4.59
11:40pm            11        3.0        3.0       88.0       69.5      14.47      28.63       0.21      0.000       4.59
11:50pm           355        2.0        3.0       88.0       69.5      14.47      28.63       0.21      0.000       4.59


NOAA Yearly Report

                  YEARLY CLIMATOLOGICAL SUMMARY FOR 2019
                                        HEAT  COOL        
     MEAN                               DEG   DEG       WIND SPEED       DOM MEAN  MEAN
MON  TEMP  HIGH   DATE     LOW   DATE   DAYS  DAYS RAIN AVG  HI  DATE    DIR BAROM HUM
---------------------------------------------------------------------------------------
1    26.1  59.2   1/8/19  -8.5  1/30/19 1198    0  0.85   4  36  1/19/19  NE 28.95   83
2    31.7  58.3   2/7/19   4.0   2/1/19  933    0  3.43   8  56  2/24/19 SSW 28.94   84
3    36.0 158.0  3/14/19   5.4   3/5/19  898    0  2.72   9  46  3/10/19 SSW 28.97   75
4    51.8 158.0  4/14/19  20.8   4/1/19  411   16  4.10   9 254  4/18/19 ESE 28.74   69
5    62.8 158.0   5/1/19  34.4   5/1/19  171  103  5.78   8 207  5/17/19   S 28.73   78
6    66.8  82.7   6/1/19  46.9   6/3/19   43   77  4.59   8  77  6/12/19  SE 28.70   75
---------------------------------------------------------------------------------------
TOT  44.5 158.0  3/14/19  -8.5  1/30/19 3654  196 14.45   8 254  4/18/19 ESE 28.85   77

HEAT BASE: 65.0
COOL BASE: 65.0


NOAA Monthly Report

                  MONTHLY CLIMATOLOGICAL SUMMARY FOR 6/2019
                                        HEAT  COOL        
     MEAN                               DEG   DEG       WIND SPEED       DOM MEAN  MEAN
DAY  TEMP  HIGH   TIME     LOW   TIME   DAYS  DAYS RAIN AVG  HI  TIME    DIR BAROM HUM
---------------------------------------------------------------------------------------
1    71.6  82.7   3:36pm  60.3   6:11am    1    7  0.00   8  26   3:58pm   S 28.60   71
2    64.3  70.9   3:09pm  55.4  11:53pm    2    2  0.14  10  41   1:02am   W 28.59   75
3    58.1  69.2   5:16pm  46.9   6:09am    7    0  0.00   6  18   4:36pm   W 28.87   57
4    66.1  80.4   4:51pm  50.3   1:46am    4    5  0.00   7  24   5:02pm  SE 28.82   61
5    72.1  80.9   3:14pm  65.0   7:54am    0    7  0.25   8  26  10:36pm  SE 28.55   76
6    67.4  75.1   4:39pm  61.7   6:08am    1    3  0.00   5  16   6:58pm  NW 28.63   86
7    67.0  78.0   5:17pm  59.1   6:27am    2    4  0.00   7  25   2:42pm NNW 28.69   73
8    68.9  80.2   1:46pm  57.4   6:22am    1    5  0.00  10  29  12:10pm  NE 28.74   69
9    71.8  77.9   6:11pm  64.5   5:48am    0    7  0.04   9  24   1:33pm ENE 28.74   74
10   66.7  73.1  12:00am  54.3  11:57pm    1    3  0.70  12  33   4:50pm WSW 28.71   82
11   63.6  74.5   4:23pm  47.6   6:09am    5    3  0.00   5  16   1:34pm   W 28.95   60
12   64.6  77.9   3:39pm  49.9   6:15am    4    4  0.36  10  84   7:58pm   E 28.73   69
13   56.6  62.3  10:24am  51.0  11:14pm    8    0  0.23  13  40  12:51pm SSW 28.54   87
14   62.8  74.3   5:43pm  50.1   4:00am    5    3  0.00  11  24   3:32pm SSW 28.85   58
15   66.7  73.8  12:15pm  62.6   6:12am    0    2  1.98  10  53   3:29pm  SE 28.70   74
16   71.3  80.7   6:04pm  65.8   3:22am    0    6  0.09   8  33  12:41am   S 28.59   86
17   70.0  76.7   5:14pm  67.1   6:47am    0    5  0.59   5  36   7:57pm SSE 28.70   91
18   70.1  75.6   4:45pm  66.2   4:15am    0    5  0.21   3  15   5:24pm   N 28.67   89
19   71.6  82.5   3:36pm  64.9   4:46am    0    4  0.00   2  12   3:59pm NNW 28.56   80
---------------------------------------------------------------------------------------
TOT  66.8  82.7   6/1/19  46.9   6/3/19   43   77  4.59   8  77  6/12/19  SE 28.70   75

HEAT BASE: 65.0
COOL BASE: 65.0